createdAt,value
2022-10-31T00:00:13.489Z,11.23
2022-10-31T00:05:17.659Z,11.12
2022-10-31T00:10:19.502Z,11.07
2022-10-31T00:15:21.631Z,11.08
2022-10-31T00:20:23.466Z,11.11
2022-10-31T00:25:25.528Z,10.99
2022-10-31T00:30:27.453Z,10.94
2022-10-31T00:35:29.308Z,10.81
2022-10-31T00:40:31.157Z,10.82
2022-10-31T00:45:33.171Z,10.81
2022-10-31T00:50:35.013Z,10.68
2022-10-31T00:55:36.982Z,10.54
2022-10-31T01:00:39.348Z,10.75
2022-10-31T01:05:41.312Z,10.74
2022-10-31T01:10:44.019Z,10.86
2022-10-31T01:15:46.294Z,10.78
2022-10-31T01:20:48.142Z,10.74
2022-10-31T01:25:50.108Z,10.55
2022-10-31T01:30:51.996Z,10.43
2022-10-31T01:35:54.434Z,10.56
2022-10-31T01:40:56.355Z,10.57
2022-10-31T01:45:58.333Z,10.50
2022-10-31T01:51:00.802Z,10.56
2022-10-31T01:56:02.711Z,10.63
2022-10-31T02:01:07.923Z,10.58
2022-10-31T02:06:26.354Z,10.49
2022-10-31T02:11:30.524Z,10.34
2022-10-31T02:16:32.678Z,10.26
2022-10-31T02:21:56.320Z,10.35
2022-10-31T02:27:10.450Z,10.35
2022-10-31T02:32:18.271Z,10.31
2022-10-31T02:37:47.315Z,10.20
2022-10-31T02:42:49.181Z,10.13
2022-10-31T02:47:59.962Z,10.13
2022-10-31T02:53:03.685Z,10.04
2022-10-31T02:58:10.056Z,9.76
2022-10-31T03:03:26.303Z,9.86
2022-10-31T03:08:42.931Z,9.88
2022-10-31T03:13:50.450Z,9.83
2022-10-31T03:19:06.624Z,9.82
2022-10-31T03:24:10.478Z,9.81
2022-10-31T03:29:16.362Z,9.76
2022-10-31T03:34:20.719Z,9.75
2022-10-31T03:39:24.548Z,9.67
2022-10-31T03:44:27.479Z,9.69
2022-10-31T03:49:35.799Z,9.64
2022-10-31T03:54:41.456Z,9.69
2022-10-31T03:59:48.119Z,9.63
2022-10-31T04:04:51.065Z,9.66
2022-10-31T04:09:54.215Z,9.61
2022-10-31T04:14:58.330Z,9.62
2022-10-31T04:20:01.857Z,9.54
2022-10-31T04:25:04.865Z,9.53
2022-10-31T04:30:07.518Z,9.50
2022-10-31T04:35:12.105Z,9.53
2022-10-31T04:40:14.199Z,9.59
2022-10-31T04:45:34.458Z,9.47
2022-10-31T04:50:36.681Z,9.36
2022-10-31T04:55:38.711Z,9.31
2022-10-31T05:00:56.899Z,9.44
2022-10-31T05:05:59.084Z,9.51
2022-10-31T05:11:04.452Z,9.67
2022-10-31T05:16:07.571Z,9.72
2022-10-31T05:21:28.075Z,9.85
2022-10-31T05:26:34.623Z,10.01
2022-10-31T05:31:36.531Z,10.15
2022-10-31T05:36:40.708Z,10.11
2022-10-31T05:41:48.450Z,10.21
2022-10-31T05:47:01.985Z,10.23
2022-10-31T05:52:22.540Z,10.11
2022-10-31T05:57:33.363Z,10.18
2022-10-31T06:02:35.526Z,9.99
2022-10-31T06:07:57.468Z,9.92
2022-10-31T06:12:59.779Z,9.92
2022-10-31T06:18:11.251Z,9.84
2022-10-31T06:23:24.314Z,10.13
2022-10-31T06:28:33.527Z,10.34
2022-10-31T06:33:47.334Z,10.62
2022-10-31T06:38:49.315Z,10.81
2022-10-31T06:43:53.785Z,11.05
2022-10-31T06:49:14.294Z,11.08
2022-10-31T06:54:26.600Z,11.22
2022-10-31T06:59:29.835Z,11.32
2022-10-31T07:04:46.711Z,11.42
2022-10-31T07:09:50.448Z,11.54
2022-10-31T07:14:56.337Z,11.47
2022-10-31T07:19:58.315Z,11.48
2022-10-31T07:25:00.684Z,11.86
2022-10-31T07:30:40.463Z,11.93
2022-10-31T07:35:43.518Z,12.14
2022-10-31T07:40:52.887Z,12.45
2022-10-31T07:45:55.662Z,12.65
2022-10-31T07:51:16.143Z,12.84
2022-10-31T07:56:36.255Z,13.06
2022-10-31T08:01:38.348Z,13.06
2022-10-31T08:07:06.432Z,13.45
2022-10-31T08:12:11.300Z,13.53
2022-10-31T08:17:13.539Z,13.90
2022-10-31T08:22:22.664Z,13.96
2022-10-31T08:27:25.234Z,14.18
2022-10-31T08:32:29.051Z,14.49
2022-10-31T08:37:58.134Z,14.83
2022-10-31T08:43:15.921Z,14.75
2022-10-31T08:48:18.382Z,14.97
2022-10-31T08:53:20.408Z,14.93
2022-10-31T08:58:35.135Z,14.97
2022-10-31T09:03:39.802Z,14.87
2022-10-31T09:08:42.770Z,14.86
2022-10-31T09:13:44.707Z,14.91
2022-10-31T09:18:52.431Z,15.16
2022-10-31T09:23:54.867Z,15.19
2022-10-31T09:28:58.647Z,14.99
2022-10-31T09:34:00.917Z,15.07
2022-10-31T09:39:11.693Z,14.98
2022-10-31T09:44:46.580Z,14.75
2022-10-31T09:50:15.511Z,14.86
2022-10-31T09:55:21.876Z,14.77
2022-10-31T10:00:30.408Z,14.81
2022-10-31T10:06:06.907Z,14.68
2022-10-31T10:11:44.013Z,14.74
2022-10-31T10:17:19.357Z,14.69
2022-10-31T10:22:33.579Z,14.63
2022-10-31T10:28:07.827Z,14.64
2022-10-31T10:33:21.848Z,14.86
2022-10-31T10:38:32.554Z,14.89
2022-10-31T10:43:36.645Z,14.93
2022-10-31T10:48:50.225Z,14.81
2022-10-31T10:54:14.736Z,15.10
2022-10-31T10:59:20.517Z,15.37
2022-10-31T11:04:34.535Z,15.53
2022-10-31T11:09:37.712Z,15.68
2022-10-31T11:14:53.504Z,15.68
2022-10-31T11:20:27.051Z,15.84
2022-10-31T11:25:28.907Z,16.10
2022-10-31T11:30:36.331Z,16.24
2022-10-31T11:35:40.857Z,16.27
2022-10-31T11:40:53.316Z,16.31
2022-10-31T11:45:55.964Z,16.45
2022-10-31T11:50:59.252Z,16.50
2022-10-31T11:56:13.290Z,16.65
2022-10-31T12:01:26.868Z,16.74
2022-10-31T12:06:34.646Z,17.00
2022-10-31T12:11:52.559Z,17.10
2022-10-31T12:17:13.790Z,17.15
2022-10-31T12:22:35.954Z,17.35
2022-10-31T12:28:03.061Z,17.40
2022-10-31T12:33:26.495Z,17.45
2022-10-31T12:38:44.818Z,17.54
2022-10-31T12:44:07.760Z,17.60
2022-10-31T12:49:20.915Z,17.45
2022-10-31T12:54:29.278Z,17.52
2022-10-31T12:59:43.752Z,17.22
2022-10-31T13:04:59.503Z,17.23
2022-10-31T13:10:13.677Z,17.17
2022-10-31T13:15:27.395Z,17.04
2022-10-31T13:20:49.302Z,16.98
2022-10-31T13:25:56.574Z,16.89
2022-10-31T13:30:58.901Z,16.70
2022-10-31T13:36:12.878Z,16.65
2022-10-31T13:41:32.079Z,16.50
2022-10-31T13:46:34.044Z,16.50
2022-10-31T13:51:36.264Z,16.33
2022-10-31T13:56:38.552Z,16.35
2022-10-31T14:01:57.588Z,16.27
2022-10-31T14:07:08.632Z,16.01
2022-10-31T14:12:35.665Z,16.04
2022-10-31T14:18:02.783Z,15.91
2022-10-31T14:23:33.854Z,15.74
2022-10-31T14:28:36.827Z,15.68
2022-10-31T14:33:43.398Z,15.51
2022-10-31T14:39:12.119Z,15.40
2022-10-31T14:44:26.435Z,15.18
2022-10-31T14:50:05.341Z,15.07
2022-10-31T14:55:13.908Z,14.99
2022-10-31T15:00:21.554Z,14.85
2022-10-31T15:05:24.560Z,14.72
2022-10-31T15:10:33.205Z,14.58
2022-10-31T15:15:36.071Z,14.44
2022-10-31T15:20:44.687Z,14.41
2022-10-31T15:25:47.175Z,14.44
2022-10-31T15:30:54.787Z,14.56
2022-10-31T15:36:02.094Z,14.78
2022-10-31T15:41:19.664Z,14.85
2022-10-31T15:46:22.536Z,15.03
2022-10-31T15:51:35.097Z,15.26
2022-10-31T15:56:37.216Z,15.32
2022-10-31T16:01:39.169Z,15.44
2022-10-31T16:06:41.084Z,15.51
2022-10-31T16:11:44.254Z,15.55
2022-10-31T16:16:56.408Z,15.56
2022-10-31T16:22:13.118Z,15.66
2022-10-31T16:27:29.461Z,15.70
2022-10-31T16:32:36.282Z,15.62
2022-10-31T16:37:40.945Z,15.44
2022-10-31T16:42:44.179Z,15.44
2022-10-31T16:47:46.943Z,15.34
2022-10-31T16:58:19.971Z,15.41
2022-10-31T17:03:22.054Z,15.58
2022-10-31T17:08:24.908Z,15.53
2022-10-31T17:13:30.159Z,15.59
2022-10-31T17:18:32.514Z,15.65
2022-10-31T17:23:34.631Z,15.53
2022-10-31T17:28:36.990Z,15.65
2022-10-31T17:33:38.966Z,15.60
2022-10-31T17:38:47.247Z,15.67
2022-10-31T17:43:49.138Z,15.82
2022-10-31T17:48:51.244Z,15.88
2022-10-31T17:53:54.114Z,15.93
2022-10-31T17:58:58.104Z,16.04
2022-10-31T18:04:00.059Z,16.06
2022-10-31T18:09:05.951Z,15.84
2022-10-31T18:14:09.597Z,15.89
2022-10-31T18:19:12.475Z,15.98
2022-10-31T18:24:14.554Z,15.95
2022-10-31T18:29:16.633Z,15.91
2022-10-31T18:34:18.655Z,15.86
2022-10-31T18:39:20.574Z,16.04
2022-10-31T18:44:22.495Z,15.93
2022-10-31T18:49:25.632Z,15.85
2022-10-31T18:54:27.836Z,15.88
2022-10-31T18:59:29.718Z,15.89
2022-10-31T19:04:31.612Z,15.89
2022-10-31T19:09:34.332Z,15.73
2022-10-31T19:14:36.201Z,15.81
2022-10-31T19:19:39.348Z,15.62
2022-10-31T19:24:41.298Z,15.80
2022-10-31T19:29:43.249Z,15.77
2022-10-31T19:34:45.226Z,15.75
2022-10-31T19:39:47.233Z,15.61
2022-10-31T19:44:49.190Z,15.68
2022-10-31T19:49:51.322Z,15.82
2022-10-31T19:54:53.187Z,15.86
2022-10-31T19:59:55.031Z,15.86
2022-10-31T20:04:59.242Z,15.85
2022-10-31T20:10:01.283Z,15.76
2022-10-31T20:15:03.636Z,15.70
2022-10-31T20:20:08.897Z,15.78
2022-10-31T20:25:10.941Z,15.78
2022-10-31T20:30:13.473Z,15.87
2022-10-31T20:35:15.579Z,15.80
2022-10-31T20:40:17.526Z,15.86
2022-10-31T20:45:19.334Z,15.68
2022-10-31T20:50:21.850Z,15.72
2022-10-31T20:55:29.943Z,15.69
2022-10-31T21:00:31.822Z,15.76
2022-10-31T21:05:33.674Z,15.68
2022-10-31T21:10:35.531Z,15.55
2022-10-31T21:15:37.377Z,15.51
2022-10-31T21:20:41.242Z,15.62
2022-10-31T21:25:43.624Z,15.58
2022-10-31T21:30:48.034Z,15.71
2022-10-31T21:35:51.592Z,15.67
2022-10-31T21:41:03.875Z,15.71
2022-10-31T21:46:12.224Z,15.70
2022-10-31T21:51:22.740Z,15.70
2022-10-31T21:56:25.745Z,15.65
2022-10-31T22:01:29.425Z,15.55
2022-10-31T22:06:32.114Z,15.41
2022-10-31T22:11:34.485Z,15.55
2022-10-31T22:16:36.649Z,15.42
2022-10-31T22:21:44.384Z,15.43
2022-10-31T22:26:46.888Z,15.27
2022-10-31T22:31:53.544Z,15.41
2022-10-31T22:36:59.253Z,15.41
2022-10-31T22:42:01.083Z,15.32
2022-10-31T22:47:02.940Z,15.36
2022-10-31T22:52:05.487Z,15.29
2022-10-31T22:57:07.374Z,15.15
2022-10-31T23:02:12.526Z,15.16
2022-10-31T23:07:15.274Z,15.23
2022-10-31T23:12:36.748Z,15.27
2022-10-31T23:17:39.189Z,15.27
2022-10-31T23:22:41.327Z,15.21
2022-10-31T23:27:43.235Z,15.28
2022-10-31T23:32:45.051Z,15.36
2022-10-31T23:37:46.935Z,15.28
2022-10-31T23:42:48.726Z,15.34
2022-10-31T23:47:50.538Z,15.38
2022-10-31T23:52:52.700Z,15.33
2022-10-31T23:57:54.723Z,15.45
